AYPY/POM METAR and TAF weather

Enter ICAO airport designator
Station Type Date Time Source
AYPY METAR 2020/09/22 00:00 UTC NOAA

AYPY 220000Z 15015KT 9999 FUHZ SCT025 SCT040 30/24 Q1010


Station Type Date Time Source
AYPY Decoded METAR 2020/09/22 00:00 UTC NOAA

Moresby, Papua New Guinea (AYPY) 09-26S 147-13E 49M
Sep 21, 2020 - 08:00 PM EDT / 2020.09.22 0000 UTC
Wind: from the SSE (150 degrees) at 17 MPH (15 KT):0
Visibility: greater than 7 mile(s):0
Sky conditions: partly cloudy
Weather: smoke, haze
Temperature: 86 F (30 C)
Heat index: 95.0 F (35.0 C):1
Dew Point: 75 F (24 C)
Relative Humidity: 70%
Pressure (altimeter): 29.83 in. Hg (1010 hPa)
ob: AYPY 220000Z 15015KT 9999 FUHZ SCT025 SCT040 30/24 Q1010
cycle: 0

Station Type Date Time Source
AYPY TAF 2020/09/21 18:30 UTC NOAA

TAF TAF AYPY 211601Z 2118/2218 16008KT 9999 FEW016 BKN040
FM220000 16010KT 9999 SCT018 BKN040
FM220400 20010KT 9999 -SHRA SCT016 SCT030 BKN120 PROB30 INTER 2206/2210 5000 TSRA BKN008 FEW018CB

Example: see airport list